Caruthersville, Missouri
Current Conditions -  °F | °C
As of 12:53 AM on Monday 24 Nov 2014 (Local Time) from KHKA Reporting Station
Clear Clear  
Wind Chill: 66°   Ceiling: Unl
Heat Index: 66°   Visibility: 10mi
Dew Point: 57°   Wind: 22mph
Humidity: 73%   Direction: 210°SSW
Pressure: 29.35"   Gusts: 29mph
Location:  36.19°N, 89.67°W
Report Text: KHKA 240653Z AUTO 21019G25KT 10SM CLR 19/14 A2935 RMK AO2 PK WND 20028/0609 SLP938 T01890139 $
Loading
Personal Weather Stations






























Interactive Weather Map New forecast layout! Learn more

10-Day Weather Forecast

Advertisements
Track Severe Weather on mobile